Noatak Airport
PAWN : rendu visible

Aérodrome :











RETROUVEZ-NOUS SUR...

 
LOGIN :

S'inscrire | Disclaimer

   EN    FR    IT 

 









Légende :    VFR   VFR Marginal   IFR   IFR Intensif   IFR Très Intensif
Visi : 
Plafond : 
>= 8 km
>= 3000ft
5 à 8 km
1000 à 3000 ft
1500m à 5 km
500 à 1000 ft
800 à 1500m
200 à 500 ft
< 800m
< 200 ft
Symboles :   Orages  Brouillard  Fortes neiges  Fortes précipitations  Vent > 20 kt






- Altitude de l'aérodrome : 88 ft
- Code IATA : WTK


PAWN - Noatak

DERNIER METAR :
  • 261256Z AUTO 34007KT 10SM FEW060 M04/M07 A2970 RMK AO2 SLP070 T10441067 FZRANO

METARs EXPIRÉS :
  • 261156Z AUTO 33005KT 10SM BKN060 M03/M05 A2972 RMK AO2 SLP075 T10281050 11017 21028 58018 FZRANO
  • 261056Z AUTO 00000KT 10SM OVC060 M02/M05 A2974 RMK AO2 SLP083 T10221050 FZRANO

TAF N/A
FIR PAZA / Amérique du Nord



MET'MAP, la Météo Aéronautique d'un coup d'oeil ! - Copyright ORBIFLY Décembre 2007 - Disclaimer

ORBIFLY MET'MAP TEAM :

Programmation & Développement : Alexandra Zaïnal
Sur une idée originale de : Baudouin d'Aumeries
Assistance à la programmation : Marc-Olivier Méhu
Soutien technique & logistique : Manuel Goepfert

Contact : metmap@orbifly.com




SOURCES & CREDITS :

   NOAA       Earth
Advisory